createdAt,value
2018-05-15T00:01:16.746Z,3.80
2018-05-15T00:03:44.360Z,4.40
2018-05-15T00:06:11.955Z,4.27
2018-05-15T00:08:39.553Z,4.23
2018-05-15T00:11:07.124Z,4.33
2018-05-15T00:13:34.747Z,4.47
2018-05-15T00:16:02.323Z,4.30
2018-05-15T00:18:29.923Z,4.27
2018-05-15T00:20:57.793Z,3.90
2018-05-15T00:23:25.486Z,4.77
2018-05-15T00:25:53.089Z,3.97
2018-05-15T00:28:20.656Z,4.10
2018-05-15T00:30:48.241Z,4.10
2018-05-15T00:33:16.648Z,4.53
2018-05-15T00:35:44.243Z,4.43
2018-05-15T00:38:12.024Z,4.90
2018-05-15T00:40:39.599Z,4.60
2018-05-15T00:43:07.185Z,4.60
2018-05-15T00:45:34.743Z,4.93
2018-05-15T00:48:02.353Z,3.80
2018-05-15T00:50:29.932Z,4.27
2018-05-15T00:52:58.327Z,4.53
2018-05-15T00:55:37.728Z,4.73
2018-05-15T00:58:05.329Z,4.57
2018-05-15T01:00:33.012Z,5.10
2018-05-15T01:03:00.586Z,4.83
2018-05-15T01:05:28.169Z,4.67
2018-05-15T01:07:55.768Z,5.50
2018-05-15T01:10:23.339Z,5.00
2018-05-15T01:12:50.917Z,4.57
2018-05-15T01:15:18.510Z,5.13
2018-05-15T01:17:46.104Z,5.40
2018-05-15T01:20:14.455Z,5.37
2018-05-15T01:22:42.031Z,4.73
2018-05-15T01:25:10.547Z,5.57
2018-05-15T01:27:38.139Z,5.10
2018-05-15T01:30:05.700Z,4.77
2018-05-15T01:32:33.327Z,4.80
2018-05-15T01:35:00.915Z,4.97
2018-05-15T01:37:28.500Z,5.20
2018-05-15T01:39:56.256Z,4.67
2018-05-15T01:42:23.829Z,4.67
2018-05-15T01:44:51.437Z,5.57
2018-05-15T01:47:19.020Z,6.03
2018-05-15T01:49:46.759Z,5.27
2018-05-15T01:52:14.576Z,4.97
2018-05-15T01:54:42.150Z,4.90
2018-05-15T01:57:09.724Z,5.43
2018-05-15T01:59:37.312Z,5.43
2018-05-15T02:02:04.879Z,5.70
2018-05-15T02:04:32.467Z,6.20
2018-05-15T02:07:00.021Z,6.07
2018-05-15T02:09:27.596Z,6.30
2018-05-15T02:11:55.468Z,5.63
2018-05-15T02:14:23.829Z,5.77
2018-05-15T02:16:52.904Z,6.40
2018-05-15T02:19:20.612Z,5.90
2018-05-15T02:21:48.211Z,6.50
2018-05-15T02:24:16.632Z,6.57
2018-05-15T02:26:44.420Z,6.27
2018-05-15T02:29:11.989Z,5.83
2018-05-15T02:31:39.561Z,6.17
2018-05-15T02:34:07.293Z,6.13
2018-05-15T02:36:35.641Z,6.63
2018-05-15T02:39:03.944Z,6.43
2018-05-15T02:41:31.551Z,6.90
2018-05-15T02:43:59.137Z,7.73
2018-05-15T02:46:26.724Z,6.80
2018-05-15T02:48:54.317Z,7.00
2018-05-15T02:51:21.908Z,6.77
2018-05-15T02:53:49.479Z,6.47
2018-05-15T02:56:17.292Z,6.33
2018-05-15T02:58:45.064Z,6.47
2018-05-15T03:01:12.656Z,6.57
2018-05-15T03:03:40.271Z,7.30
2018-05-15T03:06:07.884Z,7.27
2018-05-15T03:08:35.456Z,7.33
2018-05-15T03:11:03.052Z,7.20
2018-05-15T03:13:30.660Z,6.90
2018-05-15T03:15:58.233Z,7.27
2018-05-15T03:18:27.321Z,7.10
2018-05-15T03:20:54.883Z,7.10
2018-05-15T03:23:22.486Z,7.20
2018-05-15T03:25:50.200Z,7.20
2018-05-15T03:28:17.785Z,8.43
2018-05-15T03:30:45.361Z,8.20
2018-05-15T03:33:12.952Z,7.20
2018-05-15T03:35:40.636Z,7.03
2018-05-15T03:38:08.236Z,8.13
2018-05-15T03:40:35.812Z,8.10
2018-05-15T03:43:03.582Z,8.43
2018-05-15T03:45:31.154Z,8.40
2018-05-15T03:47:58.739Z,8.30
2018-05-15T03:50:26.336Z,8.13
2018-05-15T03:52:53.905Z,7.37
2018-05-15T03:55:21.515Z,7.93
2018-05-15T03:57:49.363Z,10.40
2018-05-15T04:00:28.678Z,9.53
2018-05-15T04:03:07.944Z,9.20
2018-05-15T04:05:47.292Z,7.63
2018-05-15T04:08:14.860Z,8.70
2018-05-15T04:10:42.460Z,9.13
2018-05-15T04:13:11.677Z,8.87
2018-05-15T04:15:39.273Z,8.57
2018-05-15T04:18:06.842Z,7.97
2018-05-15T04:20:34.431Z,8.97
2018-05-15T04:23:02.022Z,8.97
2018-05-15T04:25:29.611Z,8.53
2018-05-15T04:27:58.796Z,8.40
2018-05-15T04:30:26.335Z,8.33
2018-05-15T04:32:53.945Z,8.73
2018-05-15T04:35:22.327Z,9.17
2018-05-15T04:37:50.226Z,9.73
2018-05-15T04:40:17.820Z,8.93
2018-05-15T04:42:45.403Z,8.50
2018-05-15T04:45:13.768Z,8.50
2018-05-15T04:47:42.859Z,8.33
2018-05-15T04:50:10.464Z,7.13
2018-05-15T04:52:38.044Z,7.70
2018-05-15T04:55:05.639Z,7.80
2018-05-15T04:57:33.262Z,7.40
2018-05-15T05:00:00.947Z,8.07
2018-05-15T05:02:28.684Z,7.60
2018-05-15T05:04:56.295Z,7.83
2018-05-15T05:07:23.884Z,7.60
2018-05-15T05:09:51.471Z,8.50
2018-05-15T05:12:19.234Z,7.63
2018-05-15T05:14:46.839Z,8.47
2018-05-15T05:17:14.425Z,9.80
2018-05-15T05:19:42.163Z,8.90
2018-05-15T05:22:09.834Z,8.43
2018-05-15T05:24:38.208Z,7.77
2018-05-15T05:27:05.902Z,8.60
2018-05-15T05:29:33.420Z,7.80
2018-05-15T05:32:01.829Z,8.80
2018-05-15T05:34:29.428Z,7.90
2018-05-15T05:36:57.044Z,7.73
2018-05-15T05:39:25.380Z,7.63
2018-05-15T05:41:52.975Z,7.97
2018-05-15T05:44:21.342Z,7.50
2018-05-15T05:46:48.992Z,7.70
2018-05-15T05:49:16.572Z,7.77
2018-05-15T05:51:44.928Z,7.40
2018-05-15T05:54:12.553Z,7.13
2018-05-15T05:56:40.415Z,7.13
2018-05-15T05:59:08.009Z,5.90
2018-05-15T06:01:35.601Z,6.17
2018-05-15T06:04:04.016Z,6.10
2018-05-15T06:06:31.616Z,6.00
2018-05-15T06:08:59.216Z,7.37
2018-05-15T06:11:26.799Z,6.57
2018-05-15T06:13:54.380Z,6.63
2018-05-15T06:16:21.975Z,6.30
2018-05-15T06:18:50.441Z,6.40
2018-05-15T06:21:18.027Z,6.03
2018-05-15T06:23:45.759Z,6.13
2018-05-15T06:26:13.391Z,5.63
2018-05-15T06:28:41.268Z,5.27
2018-05-15T06:31:08.838Z,5.50
2018-05-15T06:33:36.464Z,5.93
2018-05-15T06:36:04.034Z,5.93
2018-05-15T06:38:31.698Z,4.87
2018-05-15T06:40:59.225Z,4.90
2018-05-15T06:43:27.580Z,5.20
2018-05-15T06:45:55.139Z,5.00
2018-05-15T06:48:23.476Z,5.00
2018-05-15T06:50:51.096Z,5.37
2018-05-15T06:53:18.722Z,4.73
2018-05-15T06:55:46.360Z,4.80
2018-05-15T06:58:13.928Z,4.43
2018-05-15T07:00:41.549Z,5.00
2018-05-15T07:03:09.182Z,4.57
2018-05-15T07:05:37.660Z,5.27
2018-05-15T07:08:06.043Z,4.00
2018-05-15T07:10:33.617Z,4.50
2018-05-15T07:13:01.229Z,4.23
2018-05-15T07:15:28.812Z,4.67
2018-05-15T07:17:56.425Z,4.23
2018-05-15T07:20:24.052Z,4.80
2018-05-15T07:22:52.433Z,4.93
2018-05-15T07:25:20.030Z,4.10
2018-05-15T07:27:47.673Z,4.37
2018-05-15T07:30:15.285Z,4.27
2018-05-15T07:32:42.888Z,3.57
2018-05-15T07:35:10.555Z,4.50
2018-05-15T07:37:38.148Z,4.10
2018-05-15T07:40:05.748Z,3.93
2018-05-15T07:42:34.364Z,4.50
2018-05-15T07:45:01.956Z,4.23
2018-05-15T07:47:29.559Z,4.20
2018-05-15T07:49:58.044Z,3.93
2018-05-15T07:52:26.393Z,4.40
2018-05-15T07:54:54.015Z,3.70
2018-05-15T07:57:21.607Z,4.40
2018-05-15T07:59:49.184Z,4.20
2018-05-15T08:02:16.829Z,4.10
2018-05-15T08:04:45.219Z,4.00
2018-05-15T08:07:12.800Z,3.90
2018-05-15T08:09:40.388Z,4.30
2018-05-15T08:12:07.998Z,4.00
2018-05-15T08:14:35.588Z,5.07
2018-05-15T08:17:03.317Z,4.27
2018-05-15T08:19:30.903Z,4.40
2018-05-15T08:21:58.520Z,4.00
2018-05-15T08:24:26.125Z,4.30
2018-05-15T08:26:54.448Z,3.63
2018-05-15T08:29:22.169Z,3.87
2018-05-15T08:31:50.046Z,4.07
2018-05-15T08:34:17.640Z,3.70
2018-05-15T08:36:45.272Z,3.90
2018-05-15T08:39:13.159Z,3.70
2018-05-15T08:41:40.774Z,4.20
2018-05-15T08:44:08.388Z,4.73
2018-05-15T08:46:36.006Z,4.70
2018-05-15T08:49:03.591Z,4.20
2018-05-15T08:51:31.224Z,4.37
2018-05-15T08:53:58.935Z,4.03
2018-05-15T08:56:26.555Z,3.93
2018-05-15T08:58:54.282Z,3.80
2018-05-15T09:01:21.894Z,3.70
2018-05-15T09:03:49.498Z,4.33
2018-05-15T09:06:17.086Z,3.50
2018-05-15T09:08:44.763Z,3.53
2018-05-15T09:11:12.392Z,3.70
2018-05-15T09:13:39.972Z,4.10
2018-05-15T09:16:08.343Z,4.03
2018-05-15T09:18:36.227Z,4.07
2018-05-15T09:21:03.820Z,4.07
2018-05-15T09:23:31.459Z,3.50
2018-05-15T09:25:59.085Z,3.27
2018-05-15T09:28:26.897Z,3.30
2018-05-15T09:30:54.848Z,4.00
2018-05-15T09:33:22.538Z,4.07
2018-05-15T09:35:50.204Z,3.67
2018-05-15T09:38:17.832Z,4.07
2018-05-15T09:40:45.411Z,3.77
2018-05-15T09:43:13.007Z,3.80
2018-05-15T09:45:40.623Z,3.70
2018-05-15T09:48:08.220Z,4.20
2018-05-15T09:50:35.984Z,4.03
2018-05-15T09:53:03.598Z,3.97
2018-05-15T09:55:31.235Z,3.80
2018-05-15T09:57:58.830Z,3.50
2018-05-15T10:00:32.045Z,3.83
2018-05-15T10:02:59.656Z,3.90
2018-05-15T10:05:27.276Z,3.53
2018-05-15T10:07:55.094Z,4.17
2018-05-15T10:10:22.792Z,4.03
2018-05-15T10:12:50.423Z,3.83
2018-05-15T10:15:18.272Z,3.70
2018-05-15T10:17:45.861Z,4.07
2018-05-15T10:20:13.493Z,3.70
2018-05-15T10:22:41.204Z,3.90
2018-05-15T10:25:09.065Z,3.75
2018-05-15T10:27:36.685Z,3.85
2018-05-15T10:30:04.359Z,3.95
2018-05-15T10:32:31.965Z,3.80
2018-05-15T10:34:59.588Z,3.95
2018-05-15T10:37:27.216Z,3.97
2018-05-15T10:39:55.117Z,3.80
2018-05-15T10:42:22.723Z,3.67
2018-05-15T10:44:50.350Z,3.58
2018-05-15T10:47:18.084Z,3.62
2018-05-15T10:49:45.705Z,3.60
2018-05-15T10:52:13.288Z,3.37
2018-05-15T10:54:40.904Z,3.83
2018-05-15T10:57:09.309Z,3.20
2018-05-15T10:59:36.984Z,3.33
2018-05-15T11:02:04.572Z,3.55
2018-05-15T11:04:32.351Z,3.53
2018-05-15T11:06:59.999Z,4.03
2018-05-15T11:09:27.600Z,3.30
2018-05-15T11:11:55.217Z,3.30
2018-05-15T11:14:24.449Z,2.97
2018-05-15T11:16:52.815Z,3.78
2018-05-15T11:19:32.284Z,4.50
2018-05-15T11:24:59.723Z,3.92
2018-05-15T11:27:27.286Z,4.00
2018-05-15T11:29:54.904Z,3.50
2018-05-15T11:32:22.588Z,3.67
2018-05-15T11:34:50.298Z,3.47
2018-05-15T11:37:19.398Z,3.80
2018-05-15T11:39:47.820Z,3.50
2018-05-15T11:42:15.399Z,3.90
2018-05-15T11:44:43.154Z,3.78
2018-05-15T11:47:10.706Z,3.58
2018-05-15T11:49:38.953Z,3.50
2018-05-15T11:52:06.757Z,3.50
2018-05-15T11:54:33.683Z,3.45
2018-05-15T11:57:01.257Z,3.42
2018-05-15T11:59:28.837Z,3.47
2018-05-15T12:01:56.777Z,3.15
2018-05-15T12:04:24.416Z,3.42
2018-05-15T12:06:52.751Z,3.58
2018-05-15T12:09:20.340Z,3.50
2018-05-15T12:11:48.699Z,3.97
2018-05-15T12:14:16.325Z,3.53
2018-05-15T12:16:43.885Z,3.45
2018-05-15T12:19:11.476Z,3.08
2018-05-15T12:21:39.049Z,3.62
2018-05-15T12:24:06.653Z,3.30
2018-05-15T12:26:34.374Z,3.40
2018-05-15T12:29:02.760Z,3.58
2018-05-15T12:31:30.349Z,3.50
2018-05-15T12:33:58.176Z,3.75
2018-05-15T12:36:26.614Z,3.75
2018-05-15T12:38:54.222Z,3.37
2018-05-15T12:41:21.982Z,3.80
2018-05-15T12:43:49.573Z,3.40
2018-05-15T12:46:17.375Z,3.50
2018-05-15T12:48:49.022Z,3.87
2018-05-15T12:51:16.545Z,3.87
2018-05-15T12:53:44.142Z,3.37
2018-05-15T12:56:11.776Z,3.85
2018-05-15T12:58:39.434Z,3.42
2018-05-15T13:01:07.192Z,3.42
2018-05-15T13:03:34.777Z,3.10
2018-05-15T13:06:02.391Z,3.53
2018-05-15T13:08:29.982Z,3.60
2018-05-15T13:10:57.582Z,3.50
2018-05-15T13:13:25.203Z,3.60
2018-05-15T13:15:52.872Z,3.30
2018-05-15T13:18:20.449Z,3.95
2018-05-15T13:20:48.014Z,3.70
2018-05-15T13:23:15.714Z,3.65
2018-05-15T13:25:44.068Z,3.37
2018-05-15T13:28:11.625Z,3.45
2018-05-15T13:30:39.225Z,3.67
2018-05-15T13:33:07.108Z,3.60
2018-05-15T13:35:34.974Z,3.10
2018-05-15T13:38:02.696Z,3.50
2018-05-15T13:40:30.292Z,3.40
2018-05-15T13:42:57.916Z,3.62
2018-05-15T13:45:25.747Z,3.50
2018-05-15T13:47:53.748Z,3.03
2018-05-15T13:50:21.377Z,3.83
2018-05-15T13:52:49.805Z,3.10
2018-05-15T13:55:17.395Z,3.28
2018-05-15T13:57:45.021Z,3.58
2018-05-15T14:00:12.671Z,3.40
2018-05-15T14:02:40.233Z,3.20
2018-05-15T14:05:07.799Z,3.60
2018-05-15T14:07:36.220Z,3.42
2018-05-15T14:10:03.934Z,3.08
2018-05-15T14:12:32.366Z,3.35
2018-05-15T14:14:59.906Z,2.85
2018-05-15T14:17:27.549Z,3.55
2018-05-15T14:19:55.904Z,3.60
2018-05-15T14:22:23.484Z,3.75
2018-05-15T14:24:51.840Z,3.22
2018-05-15T14:27:19.430Z,3.40
2018-05-15T14:29:47.744Z,3.62
2018-05-15T14:32:15.356Z,3.35
2018-05-15T14:34:43.875Z,3.33
2018-05-15T14:37:11.476Z,3.50
2018-05-15T14:39:39.093Z,3.30
2018-05-15T14:42:18.567Z,3.03
2018-05-15T14:44:46.134Z,3.30
2018-05-15T14:47:13.813Z,3.25
2018-05-15T14:49:42.161Z,3.58
2018-05-15T14:52:09.736Z,3.72
2018-05-15T14:54:37.325Z,3.50
2018-05-15T14:57:04.905Z,3.60
2018-05-15T14:59:32.565Z,4.30
2018-05-15T15:02:00.136Z,4.55
2018-05-15T15:04:27.870Z,4.22
2018-05-15T15:06:56.272Z,3.67
2018-05-15T15:09:23.886Z,3.60
2018-05-15T15:11:59.294Z,3.42
2018-05-15T15:14:27.033Z,3.47
2018-05-15T15:16:54.665Z,4.40
2018-05-15T15:19:23.085Z,3.70
2018-05-15T15:21:50.665Z,3.80
2018-05-15T15:24:18.208Z,4.30
2018-05-15T15:26:46.155Z,3.95
2018-05-15T15:29:13.759Z,3.97
2018-05-15T15:31:41.379Z,4.40
2018-05-15T15:34:08.929Z,3.97
2018-05-15T15:36:36.497Z,3.72
2018-05-15T15:39:04.285Z,3.47
2018-05-15T15:41:31.838Z,3.92
2018-05-15T15:43:59.475Z,4.10
2018-05-15T15:46:27.049Z,4.30
2018-05-15T15:48:54.640Z,4.35
2018-05-15T15:51:22.244Z,3.97
2018-05-15T15:53:49.822Z,4.30
2018-05-15T15:56:17.394Z,4.37
2018-05-15T15:58:45.103Z,4.05
2018-05-15T16:01:13.618Z,4.25
2018-05-15T16:03:41.418Z,4.75
2018-05-15T16:06:08.999Z,4.05
2018-05-15T16:08:36.590Z,4.68
2018-05-15T16:11:04.678Z,5.20
2018-05-15T16:13:32.258Z,4.90
2018-05-15T16:15:59.845Z,5.62
2018-05-15T16:18:28.236Z,5.30
2018-05-15T16:20:55.797Z,4.47
2018-05-15T16:23:23.408Z,5.40
2018-05-15T16:25:51.262Z,4.55
2018-05-15T16:28:18.840Z,5.28
2018-05-15T16:30:46.518Z,5.03
2018-05-15T16:33:14.138Z,5.30
2018-05-15T16:35:41.729Z,5.00
2018-05-15T16:38:09.306Z,4.53
2018-05-15T16:40:36.917Z,4.70
2018-05-15T16:43:04.501Z,4.77
2018-05-15T16:45:32.153Z,5.00
2018-05-15T16:47:59.916Z,4.70
2018-05-15T16:50:27.588Z,5.50
2018-05-15T16:52:55.201Z,4.50
2018-05-15T16:55:23.775Z,4.60
2018-05-15T16:57:52.363Z,4.63
2018-05-15T17:00:19.941Z,4.83
2018-05-15T17:02:48.275Z,4.70
2018-05-15T17:05:15.863Z,4.97
2018-05-15T17:07:43.412Z,4.83
2018-05-15T17:10:11.032Z,4.97
2018-05-15T17:12:38.622Z,5.20
2018-05-15T17:15:06.211Z,4.77
2018-05-15T17:17:33.784Z,4.60
2018-05-15T17:20:01.390Z,4.80
2018-05-15T17:22:28.982Z,4.73
2018-05-15T17:24:56.558Z,4.30
2018-05-15T17:27:24.926Z,4.90
2018-05-15T17:29:52.625Z,4.50
2018-05-15T17:32:20.173Z,4.53
2018-05-15T17:34:47.775Z,4.23
2018-05-15T17:37:15.412Z,4.27
2018-05-15T17:39:42.984Z,4.30
2018-05-15T17:42:10.586Z,4.10
2018-05-15T17:44:38.985Z,4.67
2018-05-15T17:47:06.597Z,4.37
2018-05-15T17:49:34.230Z,4.27
2018-05-15T17:52:01.911Z,4.30
2018-05-15T17:54:29.686Z,4.27
2018-05-15T17:56:57.272Z,4.53
2018-05-15T17:59:24.870Z,4.47
2018-05-15T18:01:52.689Z,4.63
2018-05-15T18:04:20.424Z,4.30
2018-05-15T18:06:48.061Z,4.07
2018-05-15T18:09:15.809Z,3.90
2018-05-15T18:11:43.452Z,4.57
2018-05-15T18:14:11.071Z,4.53
2018-05-15T18:16:38.682Z,4.07
2018-05-15T18:19:06.271Z,4.13
2018-05-15T18:21:33.846Z,4.57
2018-05-15T18:24:01.644Z,4.27
2018-05-15T18:26:29.443Z,4.57
2018-05-15T18:28:57.053Z,4.63
2018-05-15T18:31:24.685Z,4.20
2018-05-15T18:33:52.417Z,4.60
2018-05-15T18:36:20.041Z,4.67
2018-05-15T18:38:47.672Z,4.50
2018-05-15T18:41:15.307Z,4.00
2018-05-15T18:43:43.072Z,4.23
2018-05-15T18:46:10.698Z,4.43
2018-05-15T18:48:38.306Z,4.57
2018-05-15T18:51:05.898Z,4.47
2018-05-15T18:53:33.508Z,4.83
2018-05-15T18:56:01.113Z,4.80
2018-05-15T18:58:28.719Z,4.43
2018-05-15T19:00:57.080Z,4.23
2018-05-15T19:03:24.699Z,4.40
2018-05-15T19:05:52.451Z,4.30
2018-05-15T19:08:20.065Z,4.20
2018-05-15T19:10:47.663Z,4.53
2018-05-15T19:13:15.268Z,4.50
2018-05-15T19:15:43.016Z,4.20
2018-05-15T19:18:10.646Z,4.10
2018-05-15T19:20:38.563Z,4.33
2018-05-15T19:23:06.497Z,4.40
2018-05-15T19:25:34.114Z,4.37
2018-05-15T19:28:01.647Z,4.47
2018-05-15T19:30:29.369Z,4.10
2018-05-15T19:33:02.782Z,4.13
2018-05-15T19:35:45.230Z,4.10
2018-05-15T19:38:12.873Z,4.40
2018-05-15T19:40:50.589Z,4.80
2018-05-15T19:43:18.290Z,4.47
2018-05-15T19:45:46.142Z,4.30
2018-05-15T19:48:13.785Z,4.47
2018-05-15T19:50:41.529Z,4.17
2018-05-15T19:53:09.340Z,4.60
2018-05-15T19:55:37.214Z,4.60
2018-05-15T19:58:04.844Z,4.53
2018-05-15T20:00:32.538Z,4.27
2018-05-15T20:03:00.181Z,4.20
2018-05-15T20:05:27.840Z,4.17
2018-05-15T20:07:55.626Z,4.50
2018-05-15T20:10:23.238Z,4.60
2018-05-15T20:12:51.657Z,4.53
2018-05-15T20:15:19.361Z,4.37
2018-05-15T20:17:46.911Z,4.53
2018-05-15T20:20:14.567Z,4.50
2018-05-15T20:22:42.135Z,4.80
2018-05-15T20:25:10.377Z,4.57
2018-05-15T20:27:38.237Z,4.30
2018-05-15T20:30:05.872Z,4.60
2018-05-15T20:32:33.482Z,5.17
2018-05-15T20:35:01.201Z,4.50
2018-05-15T20:37:28.720Z,5.00
2018-05-15T20:39:56.281Z,5.43
2018-05-15T20:42:24.021Z,5.97
2018-05-15T20:44:51.654Z,4.93
2018-05-15T20:47:19.263Z,5.80
2018-05-15T20:49:47.678Z,5.97
2018-05-15T20:52:16.340Z,5.77
2018-05-15T20:54:43.868Z,5.97
2018-05-15T20:57:11.523Z,5.03
2018-05-15T20:59:39.101Z,5.30
2018-05-15T21:02:06.717Z,5.30
2018-05-15T21:04:34.427Z,5.27
2018-05-15T21:07:02.036Z,5.30
2018-05-15T21:09:29.605Z,5.43
2018-05-15T21:11:57.182Z,5.17
2018-05-15T21:14:24.804Z,5.30
2018-05-15T21:16:52.360Z,5.70
2018-05-15T21:19:20.980Z,5.50
2018-05-15T21:21:48.616Z,6.00
2018-05-15T21:24:16.161Z,5.00
2018-05-15T21:26:44.519Z,5.13
2018-05-15T21:29:12.117Z,5.13
2018-05-15T21:31:39.693Z,5.47
2018-05-15T21:34:07.458Z,5.33
2018-05-15T21:36:35.279Z,5.80
2018-05-15T21:39:03.624Z,6.40
2018-05-15T21:41:31.448Z,7.03
2018-05-15T21:43:59.034Z,6.30
2018-05-15T21:46:26.737Z,6.70
2018-05-15T21:48:54.347Z,5.77
2018-05-15T21:51:21.959Z,6.70
2018-05-15T21:53:49.508Z,7.03
2018-05-15T21:56:17.097Z,6.30
2018-05-15T21:58:44.662Z,7.07
2018-05-15T22:01:12.269Z,6.57
2018-05-15T22:03:39.856Z,7.20
2018-05-15T22:06:07.447Z,6.73
2018-05-15T22:08:35.308Z,6.43
2018-05-15T22:11:14.292Z,7.13
2018-05-15T22:13:53.554Z,6.97
2018-05-15T22:16:33.671Z,7.17
2018-05-15T22:19:13.025Z,6.97
2018-05-15T22:21:52.283Z,7.73
2018-05-15T22:24:37.560Z,7.43
2018-05-15T22:27:05.130Z,6.90
2018-05-15T22:29:32.833Z,7.77
2018-05-15T22:32:00.461Z,7.17
2018-05-15T22:34:28.061Z,7.90
2018-05-15T22:36:55.613Z,9.63
2018-05-15T22:39:23.212Z,9.00
2018-05-15T22:41:51.685Z,9.77
2018-05-15T22:44:19.255Z,8.53
2018-05-15T22:46:46.824Z,9.03
2018-05-15T22:49:14.393Z,8.07
2018-05-15T22:51:41.967Z,8.63
2018-05-15T22:54:09.537Z,8.47
2018-05-15T22:56:37.100Z,8.10
2018-05-15T22:59:04.698Z,9.50
2018-05-15T23:01:32.264Z,9.27
2018-05-15T23:03:59.835Z,9.10
2018-05-15T23:06:27.541Z,8.97
2018-05-15T23:08:55.033Z,8.17
2018-05-15T23:11:22.624Z,7.87
2018-05-15T23:13:50.192Z,8.83
2018-05-15T23:16:17.751Z,7.27
2018-05-15T23:18:45.348Z,7.43
2018-05-15T23:21:13.041Z,7.93
2018-05-15T23:23:41.363Z,7.30
2018-05-15T23:26:08.934Z,7.50
2018-05-15T23:28:36.523Z,7.00
2018-05-15T23:31:04.839Z,7.73
2018-05-15T23:33:32.411Z,7.37
2018-05-15T23:35:59.977Z,8.00
2018-05-15T23:38:27.714Z,7.60
2018-05-15T23:40:56.013Z,7.77
2018-05-15T23:43:23.592Z,8.20
2018-05-15T23:45:51.243Z,8.40
2018-05-15T23:48:18.894Z,8.30
2018-05-15T23:50:46.467Z,6.70
2018-05-15T23:53:14.029Z,9.30
2018-05-15T23:55:41.672Z,9.40
2018-05-15T23:58:09.255Z,9.70
